Time;durP1;ratioP1;P1;durP2;ratioP2;P2;SDS_P1;SDS_P2;PMS_P1;PMS_P2;Temp;Humidity;BMP_temperature;BMP_pressure;BME280_temperature;BME280_humidity;BME280_pressure;Samples;Min_cycle;Max_cycle;Signal;HPM_P1;HPM_P2
2022/01/07 00:02:04;;;;;;;14.93;3.40;;;;;3.80;100936.00;;;;5023261;28;20724;-68
2022/01/07 00:04:51;;;;;;;9.27;3.50;;;;;3.90;100937.00;;;;5019897;28;20246;-67
2022/01/07 00:07:37;;;;;;;9.33;3.63;;;;;3.90;100926.00;;;;5022449;28;20236;-68
2022/01/07 00:10:25;;;;;;;10.67;3.33;;;;;3.90;100923.00;;;;5023188;28;20577;-68
2022/01/07 00:13:12;;;;;;;6.57;3.30;;;;;3.90;100910.00;;;;5022247;28;20718;-68
2022/01/07 00:15:59;;;;;;;7.27;3.10;;;;;3.90;100918.00;;;;5020093;28;20284;-68
2022/01/07 00:18:45;;;;;;;5.90;3.43;;;;;3.90;100902.00;;;;5019991;28;20248;-68
2022/01/07 00:21:32;;;;;;;6.73;3.60;;;;;3.90;100913.00;;;;5021638;28;20233;-69
2022/01/07 00:24:18;;;;;;;6.13;3.23;;;;;3.90;100902.00;;;;5013421;28;20228;-69
2022/01/07 00:27:06;;;;;;;7.60;3.03;;;;;3.90;100897.00;;;;5017915;28;20308;-68
2022/01/07 00:30:12;;;;;;;9.00;4.13;;;;;3.90;100895.00;;;;5022273;28;20241;-68
2022/01/07 00:32:58;;;;;;;7.97;3.13;;;;;3.90;100894.00;;;;5032535;28;20294;-68
2022/01/07 00:35:44;;;;;;;10.33;3.57;;;;;3.80;100873.00;;;;5043914;28;20224;-68
2022/01/07 00:38:32;;;;;;;6.03;3.27;;;;;3.90;100887.00;;;;5053704;28;20248;-70
2022/01/07 00:41:19;;;;;;;9.00;3.63;;;;;3.90;100878.00;;;;5053951;28;20225;-68
2022/01/07 00:44:07;;;;;;;12.90;4.20;;;;;3.90;100868.00;;;;5033715;28;20282;-68
2022/01/07 00:46:53;;;;;;;9.27;3.80;;;;;3.90;100851.00;;;;5030926;28;20261;-69
2022/01/07 00:49:40;;;;;;;7.17;3.33;;;;;3.90;100867.00;;;;5037840;28;20246;-68
2022/01/07 00:52:27;;;;;;;6.60;3.63;;;;;3.80;100851.00;;;;5047741;28;20278;-69
2022/01/07 00:55:14;;;;;;;7.63;3.63;;;;;3.90;100851.00;;;;5053354;28;20216;-69
2022/01/07 00:58:00;;;;;;;9.67;4.47;;;;;4.00;100846.00;;;;5033491;28;20698;-67
2022/01/07 01:00:48;;;;;;;8.73;3.80;;;;;3.90;100843.00;;;;5000671;28;20378;-68
2022/01/07 01:03:34;;;;;;;12.57;4.07;;;;;4.00;100837.00;;;;5014000;28;20289;-68
2022/01/07 01:06:21;;;;;;;9.07;3.93;;;;;4.00;100834.00;;;;5008216;28;20236;-70
2022/01/07 01:09:07;;;;;;;11.43;4.43;;;;;4.00;100844.00;;;;5026825;28;20616;-68
2022/01/07 01:11:54;;;;;;;6.50;3.37;;;;;4.00;100833.00;;;;5020747;28;20307;-68
2022/01/07 01:14:41;;;;;;;6.43;3.50;;;;;4.10;100825.00;;;;5027898;28;20221;-70
2022/01/07 01:17:28;;;;;;;5.90;3.27;;;;;4.00;100823.00;;;;5020774;28;20233;-69
2022/01/07 01:20:15;;;;;;;12.13;3.77;;;;;4.00;100827.00;;;;5023878;28;20249;-69
2022/01/07 01:23:01;;;;;;;11.03;4.07;;;;;4.00;100824.00;;;;5023704;28;20771;-69
2022/01/07 01:25:47;;;;;;;6.47;3.83;;;;;4.10;100831.00;;;;5026988;28;20241;-68
2022/01/07 01:28:33;;;;;;;14.87;3.97;;;;;4.30;100818.00;;;;5025755;28;20756;-69
2022/01/07 01:31:19;;;;;;;6.27;3.57;;;;;4.20;100820.00;;;;5027292;28;20267;-70
2022/01/07 01:34:07;;;;;;;6.13;4.17;;;;;4.20;100823.00;;;;5018989;28;20242;-70
2022/01/07 01:36:53;;;;;;;11.80;4.37;;;;;4.10;100803.00;;;;5008766;28;20304;-70
2022/01/07 01:39:39;;;;;;;8.77;4.00;;;;;4.10;100809.00;;;;5025089;28;20229;-68
2022/01/07 01:42:26;;;;;;;8.57;3.43;;;;;4.20;100807.00;;;;5026593;28;20316;-69
2022/01/07 01:45:15;;;;;;;7.67;3.80;;;;;4.10;100795.00;;;;5027010;28;20732;-69
2022/01/07 01:48:01;;;;;;;9.80;3.90;;;;;4.30;100791.00;;;;5021632;28;20241;-70
2022/01/07 01:50:49;;;;;;;7.43;4.23;;;;;4.20;100778.00;;;;5023993;28;20237;-71
2022/01/07 01:53:35;;;;;;;6.53;3.53;;;;;4.20;100779.00;;;;5026829;28;20345;-70
2022/01/07 01:56:22;;;;;;;7.17;3.90;;;;;4.20;100775.00;;;;5023994;28;20241;-70
2022/01/07 01:59:08;;;;;;;12.63;4.07;;;;;4.10;100780.00;;;;5027031;28;20245;-69
2022/01/07 02:01:55;;;;;;;7.93;3.77;;;;;4.20;100770.00;;;;5019835;28;20736;-70
2022/01/07 02:04:41;;;;;;;6.80;3.83;;;;;4.10;100763.00;;;;5026837;28;20237;-69
2022/01/07 02:07:29;;;;;;;9.93;3.80;;;;;4.20;100763.00;;;;5024511;28;20232;-69
2022/01/07 02:10:17;;;;;;;8.87;3.47;;;;;4.30;100756.00;;;;5022521;28;20240;-70
2022/01/07 02:13:03;;;;;;;10.17;3.80;;;;;4.20;100753.00;;;;5021245;28;20237;-67
2022/01/07 02:15:50;;;;;;;6.27;3.07;;;;;4.30;100754.00;;;;5023276;28;20241;-69
2022/01/07 02:18:36;;;;;;;9.33;3.70;;;;;4.10;100760.00;;;;5025098;28;20890;-69
2022/01/07 02:21:25;;;;;;;8.03;4.07;;;;;4.10;100739.00;;;;5014698;28;20240;-71
2022/01/07 02:24:11;;;;;;;9.87;4.10;;;;;4.20;100746.00;;;;5021711;28;20866;-70
2022/01/07 02:26:58;;;;;;;9.17;3.77;;;;;4.20;100737.00;;;;5025861;28;20232;-69
2022/01/07 02:29:45;;;;;;;11.47;4.13;;;;;4.10;100724.00;;;;5021791;28;20232;-69
2022/01/07 02:32:33;;;;;;;12.47;3.97;;;;;4.10;100738.00;;;;5023857;28;20220;-69
2022/01/07 02:35:21;;;;;;;9.83;3.50;;;;;4.10;100734.00;;;;5023392;28;20605;-69
2022/01/07 02:38:09;;;;;;;11.83;4.03;;;;;4.10;100742.00;;;;5021144;28;20621;-68
2022/01/07 02:40:55;;;;;;;10.77;3.70;;;;;4.10;100726.00;;;;5019360;28;20288;-69
2022/01/07 02:43:41;;;;;;;8.80;4.30;;;;;4.10;100731.00;;;;5025793;28;20233;-70
2022/01/07 02:46:28;;;;;;;7.73;4.20;;;;;4.00;100724.00;;;;5025873;28;20237;-68
2022/01/07 02:49:18;;;;;;;8.27;4.07;;;;;3.90;100730.00;;;;5026128;28;20235;-69
2022/01/07 02:52:05;;;;;;;10.07;4.20;;;;;3.90;100723.00;;;;5023850;28;20229;-68
2022/01/07 02:54:53;;;;;;;10.27;4.33;;;;;3.80;100726.00;;;;5013609;28;20318;-69
2022/01/07 02:57:39;;;;;;;8.50;4.03;;;;;3.80;100721.00;;;;5025271;28;20229;-67
2022/01/07 03:00:27;;;;;;;7.63;4.47;;;;;3.80;100705.00;;;;5025455;28;20260;-69
2022/01/07 03:03:13;;;;;;;10.30;5.00;;;;;3.80;100704.00;;;;5025921;28;20228;-67
2022/01/07 03:06:00;;;;;;;11.40;5.10;;;;;3.70;100707.00;;;;5013125;28;20237;-70
2022/01/07 03:08:46;;;;;;;11.83;4.20;;;;;3.60;100695.00;;;;5018917;28;20315;-69
2022/01/07 03:11:35;;;;;;;9.67;4.70;;;;;3.70;100702.00;;;;5025382;28;20365;-69
2022/01/07 03:14:22;;;;;;;10.50;4.33;;;;;3.60;100679.00;;;;5025443;28;20240;-69
2022/01/07 03:17:08;;;;;;;13.10;4.90;;;;;3.60;100691.00;;;;5024014;28;20622;-67
2022/01/07 03:19:55;;;;;;;7.53;4.17;;;;;3.60;100674.00;;;;5019477;28;20300;-70
2022/01/07 03:22:42;;;;;;;13.10;5.33;;;;;3.50;100686.00;;;;5025301;28;20237;-69
2022/01/07 03:25:28;;;;;;;13.80;5.23;;;;;3.40;100675.00;;;;5025569;28;20676;-69
2022/01/07 03:28:16;;;;;;;11.63;5.23;;;;;3.60;100665.00;;;;5021837;28;20229;-68
2022/01/07 03:31:03;;;;;;;12.20;5.40;;;;;3.50;100664.00;;;;5017210;28;20741;-68
2022/01/07 03:33:49;;;;;;;7.20;4.67;;;;;3.50;100645.00;;;;5015334;28;20337;-70
2022/01/07 03:36:35;;;;;;;13.87;5.20;;;;;3.40;100642.00;;;;5025050;28;20279;-69
2022/01/07 03:39:22;;;;;;;14.27;5.17;;;;;3.40;100632.00;;;;5022067;28;21057;-70
2022/01/07 03:42:09;;;;;;;11.20;5.07;;;;;3.40;100629.00;;;;5022984;28;20365;-69
2022/01/07 03:44:56;;;;;;;13.30;5.17;;;;;3.50;100615.00;;;;5021416;28;20237;-70
2022/01/07 03:47:43;;;;;;;11.50;5.07;;;;;3.50;100622.00;;;;5015241;28;20300;-70
2022/01/07 03:50:30;;;;;;;15.47;5.30;;;;;3.50;100631.00;;;;5015276;28;20929;-69
2022/01/07 03:53:17;;;;;;;11.30;5.43;;;;;3.50;100622.00;;;;5017206;28;20229;-69
2022/01/07 03:56:04;;;;;;;16.27;6.40;;;;;3.30;100620.00;;;;5019659;28;20226;-68
2022/01/07 03:58:50;;;;;;;13.37;5.20;;;;;3.40;100621.00;;;;5017327;28;20275;-68
2022/01/07 04:01:38;;;;;;;11.63;5.27;;;;;3.40;100617.00;;;;5019768;28;20244;-68
2022/01/07 04:04:24;;;;;;;13.07;5.40;;;;;3.40;100614.00;;;;5008495;28;20656;-70
2022/01/07 04:07:10;;;;;;;12.00;5.50;;;;;3.30;100607.00;;;;5009771;28;20238;-70
2022/01/07 04:09:56;;;;;;;12.57;5.50;;;;;3.30;100603.00;;;;5005024;28;20646;-70
2022/01/07 04:12:43;;;;;;;10.20;5.00;;;;;3.20;100596.00;;;;5018975;28;20312;-69
2022/01/07 04:15:29;;;;;;;10.97;5.13;;;;;3.30;100604.00;;;;5022099;28;20307;-69
2022/01/07 04:18:17;;;;;;;9.37;4.97;;;;;3.20;100605.00;;;;5004883;28;20801;-69
2022/01/07 04:21:04;;;;;;;14.67;5.47;;;;;3.20;100599.00;;;;4998243;28;20239;-68
2022/01/07 04:23:50;;;;;;;9.20;5.33;;;;;3.30;100588.00;;;;5005981;28;20245;-69
2022/01/07 04:26:37;;;;;;;9.97;5.63;;;;;3.30;100594.00;;;;5003032;28;20237;-69
2022/01/07 04:29:23;;;;;;;12.93;5.23;;;;;3.30;100588.00;;;;5005578;28;20289;-69
2022/01/07 04:32:10;;;;;;;13.47;4.90;;;;;3.30;100583.00;;;;5008203;28;20310;-69
2022/01/07 04:34:57;;;;;;;13.70;5.13;;;;;3.30;100579.00;;;;5005929;28;20978;-68
2022/01/07 04:37:44;;;;;;;11.33;5.30;;;;;3.40;100578.00;;;;5003269;28;20225;-69
2022/01/07 04:40:31;;;;;;;10.10;5.60;;;;;3.40;100587.00;;;;5006643;28;20233;-69
2022/01/07 04:43:18;;;;;;;17.90;5.90;;;;;3.50;100576.00;;;;4997770;28;20238;-68
2022/01/07 04:46:05;;;;;;;9.73;5.40;;;;;3.50;100573.00;;;;5014270;28;20268;-69
2022/01/07 04:48:51;;;;;;;13.07;5.10;;;;;3.40;100574.00;;;;5005826;28;20606;-69
2022/01/07 04:51:39;;;;;;;12.90;5.20;;;;;3.40;100580.00;;;;5010285;28;20234;-69
2022/01/07 04:54:25;;;;;;;9.83;4.93;;;;;3.40;100566.00;;;;5002488;28;20233;-68
2022/01/07 04:57:12;;;;;;;12.00;5.43;;;;;3.50;100563.00;;;;5003892;28;21760;-69
2022/01/07 05:00:01;;;;;;;10.90;5.10;;;;;3.50;100562.00;;;;5005171;28;20326;-69
2022/01/07 05:02:48;;;;;;;11.30;4.87;;;;;3.40;100567.00;;;;4996108;28;20242;-69
2022/01/07 05:05:35;;;;;;;9.80;4.70;;;;;3.40;100565.00;;;;5016548;28;20227;-69
2022/01/07 05:08:23;;;;;;;9.57;4.60;;;;;3.50;100559.00;;;;5005849;28;20777;-69
2022/01/07 05:11:09;;;;;;;10.00;4.07;;;;;3.40;100568.00;;;;5003673;28;20239;-70
2022/01/07 05:13:55;;;;;;;7.93;4.30;;;;;3.40;100559.00;;;;5008137;28;20233;-69
2022/01/07 05:16:42;;;;;;;6.23;4.13;;;;;3.40;100556.00;;;;5016347;28;20402;-69
2022/01/07 05:19:29;;;;;;;11.07;4.70;;;;;3.50;100553.00;;;;5015666;28;20233;-68
2022/01/07 05:22:15;;;;;;;9.43;4.43;;;;;3.50;100558.00;;;;5012406;28;20238;-68
2022/01/07 05:25:03;;;;;;;8.60;4.63;;;;;3.50;100551.00;;;;5003600;28;20233;-69
2022/01/07 05:27:49;;;;;;;10.17;4.50;;;;;3.40;100554.00;;;;5004757;28;20242;-69
2022/01/07 05:30:36;;;;;;;8.10;4.00;;;;;3.40;100549.00;;;;5007872;28;20712;-68
2022/01/07 05:33:22;;;;;;;7.67;4.40;;;;;3.40;100550.00;;;;5015881;28;20233;-68
2022/01/07 05:36:11;;;;;;;11.17;4.70;;;;;3.50;100553.00;;;;5011638;28;20895;-68
2022/01/07 05:38:58;;;;;;;12.37;5.07;;;;;3.40;100552.00;;;;5001259;28;20332;-68
2022/01/07 05:41:45;;;;;;;8.70;4.07;;;;;3.40;100522.00;;;;5005590;28;20230;-67
2022/01/07 05:44:32;;;;;;;16.83;5.07;;;;;3.50;100549.00;;;;5007355;28;20794;-69
2022/01/07 05:47:18;;;;;;;10.07;4.73;;;;;3.40;100547.00;;;;5016375;28;20238;-68
2022/01/07 05:50:05;;;;;;;7.77;4.50;;;;;3.40;100530.00;;;;5013064;28;20233;-69
2022/01/07 05:52:51;;;;;;;11.57;5.20;;;;;3.40;100535.00;;;;5006266;28;20245;-69
2022/01/07 05:55:37;;;;;;;12.83;4.67;;;;;3.40;100534.00;;;;5007257;28;20708;-69
2022/01/07 05:58:25;;;;;;;12.73;4.90;;;;;3.40;100534.00;;;;5006733;28;20362;-69
2022/01/07 06:01:12;;;;;;;12.23;4.50;;;;;3.30;100527.00;;;;5011506;28;20241;-68
2022/01/07 06:03:58;;;;;;;9.10;4.70;;;;;3.30;100516.00;;;;5010440;28;20289;-69
2022/01/07 06:06:45;;;;;;;8.67;4.53;;;;;3.20;100520.00;;;;5001488;28;20296;-70
2022/01/07 06:09:31;;;;;;;7.53;4.50;;;;;3.20;100512.00;;;;5014682;28;20305;-68
2022/01/07 06:12:17;;;;;;;8.40;4.53;;;;;3.30;100512.00;;;;5002711;28;20230;-69
2022/01/07 06:15:06;;;;;;;11.73;5.40;;;;;3.30;100520.00;;;;5003043;28;20233;-69
2022/01/07 06:17:53;;;;;;;16.27;4.97;;;;;3.30;100506.00;;;;5006317;28;20789;-70
2022/01/07 06:20:39;;;;;;;8.43;5.37;;;;;3.30;100514.00;;;;5012582;28;20234;-67
2022/01/07 06:23:25;;;;;;;10.43;4.97;;;;;3.30;100502.00;;;;5006602;28;20333;-68
2022/01/07 06:26:12;;;;;;;8.33;5.03;;;;;3.20;100518.00;;;;5014519;28;20256;-68
2022/01/07 06:28:58;;;;;;;9.93;5.20;;;;;3.30;100509.00;;;;4995701;28;20246;-68
2022/01/07 06:31:46;;;;;;;10.93;5.80;;;;;3.40;100517.00;;;;4998049;28;20293;-68
2022/01/07 06:34:32;;;;;;;11.23;5.83;;;;;3.30;100511.00;;;;4998019;28;20249;-70
2022/01/07 06:37:18;;;;;;;14.67;5.90;;;;;3.20;100498.00;;;;5026540;28;20237;-67
2022/01/07 06:40:06;;;;;;;12.90;5.80;;;;;3.30;100485.00;;;;5002649;28;20238;-69
2022/01/07 06:42:52;;;;;;;11.57;5.57;;;;;3.20;100506.00;;;;5006840;28;20241;-69
2022/01/07 06:45:39;;;;;;;9.07;5.10;;;;;3.20;100503.00;;;;5006832;28;20249;-70
2022/01/07 06:48:26;;;;;;;10.07;4.93;;;;;3.30;100510.00;;;;5006429;28;20241;-69
2022/01/07 06:51:13;;;;;;;11.60;6.23;;;;;3.30;100504.00;;;;5006264;28;20277;-68
2022/01/07 06:53:59;;;;;;;11.70;5.70;;;;;3.20;100502.00;;;;5000399;28;20230;-69
2022/01/07 06:56:46;;;;;;;9.00;5.50;;;;;3.30;100499.00;;;;5005121;28;20238;-69
2022/01/07 06:59:33;;;;;;;10.50;6.60;;;;;3.20;100500.00;;;;5006144;28;20708;-67
2022/01/07 07:02:19;;;;;;;9.73;5.70;;;;;3.20;100500.00;;;;5023161;28;20237;-68
2022/01/07 07:05:08;;;;;;;10.80;6.00;;;;;3.10;100505.00;;;;5009945;28;20260;-69
2022/01/07 07:07:54;;;;;;;11.27;6.33;;;;;3.30;100504.00;;;;5018075;28;20848;-72
2022/01/07 07:10:40;;;;;;;11.20;6.20;;;;;3.20;100509.00;;;;5014998;28;20297;-69
2022/01/07 07:13:26;;;;;;;13.90;6.80;;;;;3.10;100518.00;;;;5015268;28;20844;-69
2022/01/07 07:16:13;;;;;;;13.73;6.37;;;;;3.30;100513.00;;;;5018161;28;20246;-70
2022/01/07 07:18:59;;;;;;;10.37;6.47;;;;;3.20;100504.00;;;;5013312;28;20350;-69
2022/01/07 07:21:47;;;;;;;12.87;7.40;;;;;3.40;100518.00;;;;5013922;28;20289;-70
2022/01/07 07:24:33;;;;;;;11.40;6.73;;;;;3.40;100523.00;;;;5010499;28;20300;-70
2022/01/07 07:27:20;;;;;;;15.83;7.10;;;;;3.40;100514.00;;;;4997616;28;20816;-70
2022/01/07 07:30:09;;;;;;;11.80;7.17;;;;;3.20;100517.00;;;;4996523;28;20242;-70
2022/01/07 07:32:55;;;;;;;17.20;7.47;;;;;3.40;100528.00;;;;5003421;28;20301;-71
2022/01/07 07:38:47;;;;;;;14.60;7.60;;;;;3.40;100514.00;;;;5008594;28;20704;-70
2022/01/07 07:41:34;;;;;;;15.43;8.13;;;;;3.50;100518.00;;;;5005643;28;20228;-69
2022/01/07 07:44:21;;;;;;;13.00;8.00;;;;;3.50;100523.00;;;;5009945;28;20241;-70
2022/01/07 07:47:07;;;;;;;17.90;8.20;;;;;3.60;100511.00;;;;5024467;28;20241;-70
2022/01/07 07:49:53;;;;;;;12.73;7.97;;;;;3.50;100513.00;;;;5027369;28;20254;-70
2022/01/07 07:52:40;;;;;;;14.87;8.20;;;;;3.60;100516.00;;;;5028840;28;20321;-70
2022/01/07 07:55:28;;;;;;;17.60;8.63;;;;;3.60;100521.00;;;;5027130;28;20638;-70
2022/01/07 07:58:14;;;;;;;17.57;8.40;;;;;3.70;100521.00;;;;5024423;28;20241;-70
2022/01/07 08:01:02;;;;;;;13.80;8.53;;;;;3.70;100526.00;;;;5037083;28;20236;-69
2022/01/07 08:03:48;;;;;;;16.47;8.90;;;;;3.90;100513.00;;;;5029617;28;20756;-70
2022/01/07 08:06:35;;;;;;;14.73;8.67;;;;;3.90;100525.00;;;;5024984;28;20591;-70
2022/01/07 08:09:21;;;;;;;17.00;9.10;;;;;3.90;100517.00;;;;5037487;28;20244;-69
2022/01/07 08:12:19;;;;;;;15.67;9.23;;;;;3.80;100510.00;;;;5029299;28;20650;-70
2022/01/07 08:18:10;;;;;;;16.70;9.13;;;;;3.80;100508.00;;;;5024377;28;20751;-69
2022/01/07 08:20:57;;;;;;;16.93;9.23;;;;;3.80;100517.00;;;;5013032;28;20727;-70
2022/01/07 08:23:45;;;;;;;21.73;9.40;;;;;3.90;100517.00;;;;5022228;28;20703;-67
2022/01/07 08:26:32;;;;;;;16.80;9.90;;;;;3.90;100530.00;;;;5021438;28;20226;-70
2022/01/07 08:29:23;;;;;;;18.27;9.37;;;;;3.90;100505.00;;;;5015938;28;21644;-69
2022/01/07 08:35:12;;;;;;;17.37;10.57;;;;;4.00;100520.00;;;;4997325;28;20227;-69
2022/01/07 08:37:59;;;;;;;17.43;9.50;;;;;4.10;100515.00;;;;5022711;28;20237;-69
2022/01/07 08:40:45;;;;;;;17.37;9.70;;;;;4.00;100512.00;;;;5021031;28;20299;-68
2022/01/07 08:43:32;;;;;;;18.90;9.50;;;;;4.10;100505.00;;;;5027188;28;20241;-69
2022/01/07 08:46:20;;;;;;;17.40;10.07;;;;;4.00;100506.00;;;;5028744;28;20229;-68
2022/01/07 08:49:06;;;;;;;17.73;9.33;;;;;4.10;100502.00;;;;5023175;28;20338;-69
2022/01/07 08:51:53;;;;;;;19.67;9.23;;;;;4.10;100508.00;;;;5024615;28;20814;-69
2022/01/07 08:54:39;;;;;;;19.73;9.03;;;;;4.00;100516.00;;;;5028220;28;20351;-70
2022/01/07 08:57:25;;;;;;;13.80;8.93;;;;;4.10;100510.00;;;;5025793;28;20237;-70
2022/01/07 09:00:13;;;;;;;15.70;8.53;;;;;4.20;100501.00;;;;5028329;28;20606;-71
2022/01/07 09:03:01;;;;;;;15.87;8.10;;;;;4.20;100488.00;;;;5011010;28;20233;-71
2022/01/07 09:05:47;;;;;;;13.73;8.70;;;;;4.10;100504.00;;;;5027923;28;20229;-69
2022/01/07 09:08:34;;;;;;;15.73;8.63;;;;;4.10;100489.00;;;;5026188;28;20352;-69
2022/01/07 09:11:20;;;;;;;19.63;8.90;;;;;4.20;100489.00;;;;5027943;28;20294;-71
2022/01/07 09:14:06;;;;;;;18.07;8.33;;;;;4.20;100493.00;;;;5027449;28;20327;-71
2022/01/07 09:16:53;;;;;;;20.70;9.07;;;;;4.20;100486.00;;;;5021249;28;20229;-71
2022/01/07 09:19:40;;;;;;;14.57;8.10;;;;;4.30;100489.00;;;;5027353;28;20225;-70
2022/01/07 09:22:27;;;;;;;16.80;8.73;;;;;4.30;100480.00;;;;5028157;28;20224;-70
2022/01/07 09:25:13;;;;;;;14.33;8.93;;;;;4.20;100483.00;;;;5027726;28;20891;-69
2022/01/07 09:28:00;;;;;;;15.07;9.13;;;;;4.30;100461.00;;;;5025470;28;20712;-70
2022/01/07 09:30:46;;;;;;;19.13;9.50;;;;;4.40;100467.00;;;;5017181;28;20234;-69
2022/01/07 09:33:33;;;;;;;11.57;8.00;;;;;4.30;100491.00;;;;5027605;28;20236;-69
2022/01/07 09:36:40;;;;;;;16.17;7.87;;;;;4.30;100456.00;;;;5027138;28;20603;-71
2022/01/07 09:39:26;;;;;;;17.43;9.37;;;;;4.30;100491.00;;;;5027595;28;20235;-69
2022/01/07 09:42:13;;;;;;;12.40;7.97;;;;;4.30;100500.00;;;;5023564;28;20228;-70
2022/01/07 09:44:59;;;;;;;18.30;8.70;;;;;4.30;100486.00;;;;5011037;28;20241;-70
2022/01/07 09:47:46;;;;;;;14.73;8.40;;;;;4.40;100491.00;;;;5019260;28;20882;-71
2022/01/07 09:50:34;;;;;;;12.60;8.50;;;;;4.40;100486.00;;;;5018702;28;20225;-70
2022/01/07 09:53:23;;;;;;;17.73;8.83;;;;;4.40;100476.00;;;;5027243;28;20302;-71
2022/01/07 09:56:09;;;;;;;13.33;9.20;;;;;4.50;100472.00;;;;5027181;28;20232;-71
2022/01/07 09:58:56;;;;;;;15.67;8.23;;;;;4.40;100473.00;;;;5020219;28;20279;-71
2022/01/07 10:01:55;;;;;;;12.33;9.00;;;;;4.40;100476.00;;;;5023881;28;20220;-70
2022/01/07 10:04:43;;;;;;;20.93;9.20;;;;;4.50;100481.00;;;;5023049;28;20229;-71
2022/01/07 10:07:30;;;;;;;14.93;8.90;;;;;4.60;100487.00;;;;5022044;28;20716;-71
2022/01/07 10:10:19;;;;;;;20.00;9.50;;;;;4.50;100493.00;;;;5031545;28;20248;-70
2022/01/07 10:13:06;;;;;;;18.50;10.43;;;;;4.50;100495.00;;;;5017671;28;20389;-73
2022/01/07 10:15:52;;;;;;;19.40;10.67;;;;;4.80;100493.00;;;;5025163;28;20299;-72
2022/01/07 10:18:59;;;;;;;14.97;10.17;;;;;4.70;100484.00;;;;5018738;28;20233;-70
2022/01/07 10:21:45;;;;;;;18.07;10.20;;;;;4.90;100478.00;;;;5018807;28;20287;-69
2022/01/07 10:24:31;;;;;;;20.40;11.07;;;;;4.80;100470.00;;;;5018234;28;20245;-70
2022/01/07 10:27:19;;;;;;;17.97;10.40;;;;;4.80;100476.00;;;;5031656;28;20335;-70
2022/01/07 10:30:11;;;;;;;16.93;10.13;;;;;4.90;100475.00;;;;5029881;28;20231;-70
2022/01/07 10:32:57;;;;;;;14.40;9.53;;;;;4.90;100479.00;;;;5025367;28;21024;-70
2022/01/07 10:35:44;;;;;;;14.20;9.30;;;;;5.00;100479.00;;;;5012379;28;20233;-69
2022/01/07 10:38:30;;;;;;;12.13;8.73;;;;;5.00;100477.00;;;;5022669;28;20236;-68
2022/01/07 10:41:17;;;;;;;15.40;8.67;;;;;4.90;100461.00;;;;5024180;28;20236;-71
2022/01/07 10:44:08;;;;;;;16.10;9.10;;;;;5.00;100466.00;;;;5022071;28;20604;-69
2022/01/07 10:46:54;;;;;;;13.10;8.40;;;;;4.90;100472.00;;;;5020142;28;20424;-71
2022/01/07 10:49:41;;;;;;;13.73;8.87;;;;;5.10;100459.00;;;;5016977;28;21081;-71
2022/01/07 10:52:27;;;;;;;14.37;8.77;;;;;5.10;100454.00;;;;5025185;28;20236;-69
2022/01/07 10:55:16;;;;;;;13.77;8.77;;;;;5.10;100447.00;;;;5024108;28;20229;-69
2022/01/07 10:58:07;;;;;;;14.43;9.07;;;;;5.20;100447.00;;;;5024991;28;20359;-70
2022/01/07 11:00:55;;;;;;;12.37;8.40;;;;;5.20;100429.00;;;;5017584;28;20767;-67
2022/01/07 11:03:41;;;;;;;17.07;8.73;;;;;5.30;100435.00;;;;5021330;28;20596;-70
2022/01/07 11:06:30;;;;;;;14.13;8.77;;;;;5.30;100429.00;;;;5021207;28;20233;-70
2022/01/07 11:09:17;;;;;;;13.80;8.70;;;;;5.30;100419.00;;;;5023185;28;20232;-70
2022/01/07 11:12:06;;;;;;;12.47;8.33;;;;;5.50;100424.00;;;;5015717;28;20233;-70
2022/01/07 11:14:53;;;;;;;12.90;8.43;;;;;5.50;100436.00;;;;5015493;28;20268;-70
2022/01/07 11:17:42;;;;;;;14.37;8.63;;;;;5.50;100440.00;;;;5023918;28;20244;-69
2022/01/07 11:20:28;;;;;;;15.13;8.93;;;;;5.50;100427.00;;;;5025207;28;20241;-70
2022/01/07 11:23:14;;;;;;;15.97;9.00;;;;;5.40;100422.00;;;;5022020;28;20608;-69
2022/01/07 11:26:02;;;;;;;16.20;9.37;;;;;5.50;100424.00;;;;5014491;28;20249;-68
2022/01/07 11:29:00;;;;;;;16.17;9.33;;;;;5.50;100417.00;;;;5010995;28;20260;-70
2022/01/07 11:31:51;;;;;;;11.93;7.80;;;;;5.50;100420.00;;;;5024647;28;20232;-70
2022/01/07 11:34:39;;;;;;;14.03;8.60;;;;;5.50;100431.00;;;;5016930;28;20335;-69
2022/01/07 11:37:35;;;;;;;13.93;8.33;;;;;5.60;100423.00;;;;5023803;28;20232;-69
2022/01/07 11:40:44;;;;;;;15.73;9.00;;;;;5.60;100411.00;;;;5016169;28;20779;-70
2022/01/07 11:43:37;;;;;;;14.33;8.63;;;;;5.50;100416.00;;;;5026267;28;20237;-69
2022/01/07 11:46:31;;;;;;;13.23;8.33;;;;;5.60;100421.00;;;;5024902;28;20240;-70
2022/01/07 11:49:32;;;;;;;14.17;8.63;;;;;5.70;100404.00;;;;5017036;28;20295;-71
2022/01/07 11:52:35;;;;;;;16.70;9.63;;;;;5.70;100396.00;;;;5021743;28;20707;-72
2022/01/07 11:55:30;;;;;;;19.83;9.60;;;;;5.70;100402.00;;;;5020054;28;20229;-70
2022/01/07 11:58:18;;;;;;;16.70;9.73;;;;;5.80;100404.00;;;;5023726;28;20284;-69
2022/01/07 12:01:04;;;;;;;14.80;8.67;;;;;5.80;100400.00;;;;5032048;28;20281;-71
2022/01/07 12:03:53;;;;;;;18.00;9.80;;;;;5.80;100405.00;;;;5025572;28;20236;-69
2022/01/07 12:06:47;;;;;;;14.60;8.83;;;;;5.80;100396.00;;;;5020441;28;20229;-70
2022/01/07 12:09:39;;;;;;;14.57;8.90;;;;;5.80;100403.00;;;;5023607;28;20233;-69
2022/01/07 12:12:34;;;;;;;12.47;8.63;;;;;5.70;100413.00;;;;5024292;28;20237;-70
2022/01/07 12:15:21;;;;;;;14.70;8.70;;;;;5.80;100410.00;;;;5028431;28;20237;-69
2022/01/07 12:18:10;;;;;;;14.37;8.13;;;;;5.70;100417.00;;;;5030943;28;20291;-69
2022/01/07 12:20:56;;;;;;;12.40;7.80;;;;;5.80;100410.00;;;;5024654;28;20237;-69
2022/01/07 12:23:43;;;;;;;13.73;7.57;;;;;5.70;100413.00;;;;5026646;28;20316;-69
2022/01/07 12:26:30;;;;;;;12.07;7.67;;;;;5.80;100412.00;;;;5017420;28;20312;-71
2022/01/07 12:29:19;;;;;;;14.90;7.90;;;;;5.70;100406.00;;;;5041624;28;20241;-67
2022/01/07 12:32:07;;;;;;;14.67;8.67;;;;;5.90;100406.00;;;;5014765;28;20234;-68
2022/01/07 12:34:53;;;;;;;11.90;7.57;;;;;6.00;100409.00;;;;5012975;28;20755;-70
2022/01/07 12:37:39;;;;;;;10.73;6.87;;;;;6.10;100401.00;;;;5016374;28;20334;-69
2022/01/07 12:40:26;;;;;;;12.67;6.90;;;;;6.10;100394.00;;;;5021001;28;20286;-69
2022/01/07 12:43:14;;;;;;;10.00;6.50;;;;;6.00;100395.00;;;;5023943;28;20221;-69
2022/01/07 12:46:02;;;;;;;9.97;6.00;;;;;6.00;100388.00;;;;5030180;28;20888;-70
2022/01/07 12:48:48;;;;;;;13.27;6.70;;;;;6.00;100394.00;;;;5034582;28;20250;-70
2022/01/07 12:51:36;;;;;;;10.97;6.07;;;;;6.10;100394.00;;;;5026384;28;20225;-69
2022/01/07 12:54:22;;;;;;;9.53;5.80;;;;;6.10;100398.00;;;;5028098;28;20233;-69
2022/01/07 12:57:08;;;;;;;11.83;6.07;;;;;6.10;100390.00;;;;5018624;28;20237;-70
2022/01/07 13:00:15;;;;;;;9.00;5.97;;;;;6.10;100396.00;;;;5018988;28;20413;-70
2022/01/07 13:03:06;;;;;;;7.60;5.50;;;;;6.10;100387.00;;;;5021717;28;20241;-67
2022/01/07 13:05:53;;;;;;;7.80;5.43;;;;;6.10;100385.00;;;;5027598;28;20240;-69
2022/01/07 13:08:39;;;;;;;11.03;5.67;;;;;6.10;100382.00;;;;5027114;28;20236;-69
2022/01/07 13:11:26;;;;;;;8.87;5.20;;;;;6.20;100371.00;;;;5024348;28;20249;-71
2022/01/07 13:14:13;;;;;;;7.80;5.37;;;;;6.10;100373.00;;;;5018762;28;20295;-71
2022/01/07 13:17:01;;;;;;;9.13;4.53;;;;;6.00;100368.00;;;;5019048;28;20357;-70
2022/01/07 13:19:49;;;;;;;7.57;5.67;;;;;6.10;100365.00;;;;5009484;28;20233;-70
2022/01/07 13:22:36;;;;;;;6.83;4.60;;;;;6.10;100367.00;;;;5034558;28;20249;-71
2022/01/07 13:25:22;;;;;;;10.17;5.10;;;;;6.10;100360.00;;;;5026705;28;20230;-71
2022/01/07 13:28:09;;;;;;;8.00;5.20;;;;;6.10;100362.00;;;;5022621;28;20368;-71
2022/01/07 13:30:56;;;;;;;9.47;5.17;;;;;6.20;100357.00;;;;5018164;28;20361;-72
2022/01/07 13:33:44;;;;;;;10.00;5.90;;;;;6.20;100364.00;;;;5025635;28;20229;-72
2022/01/07 13:36:48;;;;;;;7.93;5.70;;;;;6.10;100360.00;;;;5023957;28;20311;-71
2022/01/07 13:39:40;;;;;;;16.07;6.10;;;;;6.10;100358.00;;;;5025197;28;20308;-70
2022/01/07 13:42:30;;;;;;;9.47;6.13;;;;;6.10;100362.00;;;;5022936;28;20336;-70
2022/01/07 13:45:22;;;;;;;10.20;6.60;;;;;6.10;100357.00;;;;5023310;28;20229;-70
2022/01/07 13:48:11;;;;;;;13.47;6.43;;;;;6.00;100362.00;;;;5020598;28;20230;-70
2022/01/07 13:51:10;;;;;;;9.97;6.50;;;;;6.00;100351.00;;;;5020376;28;20376;-68
2022/01/07 13:54:13;;;;;;;10.13;6.20;;;;;6.00;100359.00;;;;5023688;28;20331;-69
2022/01/07 13:57:03;;;;;;;13.67;6.10;;;;;6.10;100354.00;;;;5020494;28;20357;-70
2022/01/07 13:59:50;;;;;;;11.63;6.03;;;;;6.00;100359.00;;;;5020905;28;20225;-70
2022/01/07 14:02:36;;;;;;;12.07;6.77;;;;;6.00;100354.00;;;;5008312;28;20598;-69